sensor_id;sensor_type;location;lat;lon;timestamp;pressure;altitude;pressure_sealevel;temperature;humidity
76794;BME280;65745;50.278;18.192;2023-08-07T00:01:33;98455.36;;;14.96;87.06
76794;BME280;65745;50.278;18.192;2023-08-07T00:04:06;98449.95;;;14.89;87.77
76794;BME280;65745;50.278;18.192;2023-08-07T00:06:38;98449.50;;;14.85;87.86
76794;BME280;65745;50.278;18.192;2023-08-07T00:09:10;98453.61;;;14.87;87.76
76794;BME280;65745;50.278;18.192;2023-08-07T00:11:42;98456.17;;;14.80;88.12
76794;BME280;65745;50.278;18.192;2023-08-07T00:14:14;98456.95;;;14.77;88.24
76794;BME280;65745;50.278;18.192;2023-08-07T00:16:46;98454.48;;;14.79;88.03
76794;BME280;65745;50.278;18.192;2023-08-07T00:19:17;98457.21;;;14.81;87.83
76794;BME280;65745;50.278;18.192;2023-08-07T00:21:49;98456.45;;;14.84;87.72
76794;BME280;65745;50.278;18.192;2023-08-07T00:24:22;98459.98;;;14.81;88.12
76794;BME280;65745;50.278;18.192;2023-08-07T00:26:54;98458.19;;;14.84;87.92
76794;BME280;65745;50.278;18.192;2023-08-07T00:29:26;98465.05;;;14.87;87.60
76794;BME280;65745;50.278;18.192;2023-08-07T00:31:58;98467.63;;;14.89;87.45
76794;BME280;65745;50.278;18.192;2023-08-07T00:34:30;98465.62;;;14.94;87.42
76794;BME280;65745;50.278;18.192;2023-08-07T00:37:03;98466.08;;;14.89;87.89
76794;BME280;65745;50.278;18.192;2023-08-07T00:39:34;98462.86;;;14.84;88.27
76794;BME280;65745;50.278;18.192;2023-08-07T00:42:07;98463.95;;;14.83;88.23
76794;BME280;65745;50.278;18.192;2023-08-07T00:44:39;98462.66;;;14.86;88.36
76794;BME280;65745;50.278;18.192;2023-08-07T00:47:11;98462.50;;;14.85;88.29
76794;BME280;65745;50.278;18.192;2023-08-07T00:49:43;98464.67;;;14.90;88.08
76794;BME280;65745;50.278;18.192;2023-08-07T00:52:16;98467.46;;;14.88;88.20
76794;BME280;65745;50.278;18.192;2023-08-07T00:54:50;98467.08;;;14.92;88.25
76794;BME280;65745;50.278;18.192;2023-08-07T00:57:22;98465.46;;;14.94;88.08
76794;BME280;65745;50.278;18.192;2023-08-07T00:59:55;98460.80;;;14.93;88.23
76794;BME280;65745;50.278;18.192;2023-08-07T01:02:27;98464.45;;;14.92;88.33
76794;BME280;65745;50.278;18.192;2023-08-07T01:04:59;98467.02;;;14.93;88.35
76794;BME280;65745;50.278;18.192;2023-08-07T01:07:32;98462.17;;;14.93;88.41
76794;BME280;65745;50.278;18.192;2023-08-07T01:10:05;98464.11;;;14.92;88.51
76794;BME280;65745;50.278;18.192;2023-08-07T01:12:45;98466.57;;;14.90;88.64
76794;BME280;65745;50.278;18.192;2023-08-07T01:15:25;98467.09;;;14.89;89.01
76794;BME280;65745;50.278;18.192;2023-08-07T01:18:01;98469.04;;;14.87;89.08
76794;BME280;65745;50.278;18.192;2023-08-07T01:20:35;98466.25;;;14.89;89.05
76794;BME280;65745;50.278;18.192;2023-08-07T01:23:08;98464.50;;;14.89;88.91
76794;BME280;65745;50.278;18.192;2023-08-07T01:25:40;98459.85;;;14.87;89.01
76794;BME280;65745;50.278;18.192;2023-08-07T01:28:19;98455.49;;;14.80;89.90
76794;BME280;65745;50.278;18.192;2023-08-07T01:30:59;98453.54;;;14.74;90.07
76794;BME280;65745;50.278;18.192;2023-08-07T01:33:34;98457.27;;;14.71;90.22
76794;BME280;65745;50.278;18.192;2023-08-07T01:36:11;98457.51;;;14.67;90.55
76794;BME280;65745;50.278;18.192;2023-08-07T01:38:50;98455.55;;;14.69;90.12
76794;BME280;65745;50.278;18.192;2023-08-07T01:41:24;98458.93;;;14.73;89.84
76794;BME280;65745;50.278;18.192;2023-08-07T01:43:58;98453.52;;;14.76;89.82
76794;BME280;65745;50.278;18.192;2023-08-07T01:46:30;98455.33;;;14.72;90.54
76794;BME280;65745;50.278;18.192;2023-08-07T01:49:02;98456.20;;;14.71;90.61
76794;BME280;65745;50.278;18.192;2023-08-07T01:51:34;98457.54;;;14.73;90.47
76794;BME280;65745;50.278;18.192;2023-08-07T01:54:06;98454.66;;;14.79;90.00
76794;BME280;65745;50.278;18.192;2023-08-07T01:56:38;98449.29;;;14.86;89.72
76794;BME280;65745;50.278;18.192;2023-08-07T01:59:10;98444.86;;;14.92;89.43
76794;BME280;65745;50.278;18.192;2023-08-07T02:01:42;98442.05;;;14.93;89.31
76794;BME280;65745;50.278;18.192;2023-08-07T02:04:14;98439.48;;;14.92;89.22
76794;BME280;65745;50.278;18.192;2023-08-07T02:06:46;98438.82;;;14.91;89.13
76794;BME280;65745;50.278;18.192;2023-08-07T02:09:19;98439.90;;;14.87;89.43
76794;BME280;65745;50.278;18.192;2023-08-07T02:11:51;98439.26;;;14.86;89.44
76794;BME280;65745;50.278;18.192;2023-08-07T02:14:23;98439.40;;;14.87;89.64
76794;BME280;65745;50.278;18.192;2023-08-07T02:16:55;98436.88;;;14.84;89.59
76794;BME280;65745;50.278;18.192;2023-08-07T02:19:27;98441.77;;;14.82;89.73
76794;BME280;65745;50.278;18.192;2023-08-07T02:22:01;98446.41;;;14.76;90.20
76794;BME280;65745;50.278;18.192;2023-08-07T02:24:33;98452.43;;;14.69;90.14
76794;BME280;65745;50.278;18.192;2023-08-07T02:27:06;98453.03;;;14.65;90.13
76794;BME280;65745;50.278;18.192;2023-08-07T02:29:39;98447.77;;;14.59;90.40
76794;BME280;65745;50.278;18.192;2023-08-07T02:32:11;98450.23;;;14.58;90.78
76794;BME280;65745;50.278;18.192;2023-08-07T02:34:43;98453.59;;;14.63;90.61
76794;BME280;65745;50.278;18.192;2023-08-07T02:37:16;98451.52;;;14.63;90.66
76794;BME280;65745;50.278;18.192;2023-08-07T02:39:48;98455.48;;;14.64;90.65
76794;BME280;65745;50.278;18.192;2023-08-07T02:42:20;98456.76;;;14.70;90.72
76794;BME280;65745;50.278;18.192;2023-08-07T02:44:52;98455.40;;;14.68;90.82
76794;BME280;65745;50.278;18.192;2023-08-07T02:47:24;98455.23;;;14.68;90.86
76794;BME280;65745;50.278;18.192;2023-08-07T02:49:56;98454.14;;;14.70;90.68
76794;BME280;65745;50.278;18.192;2023-08-07T02:52:28;98457.17;;;14.75;90.42
76794;BME280;65745;50.278;18.192;2023-08-07T02:55:00;98457.73;;;14.72;90.40
76794;BME280;65745;50.278;18.192;2023-08-07T02:57:32;98462.02;;;14.75;90.07
76794;BME280;65745;50.278;18.192;2023-08-07T03:00:05;98463.46;;;14.73;90.33
76794;BME280;65745;50.278;18.192;2023-08-07T03:02:38;98461.27;;;14.69;90.26
76794;BME280;65745;50.278;18.192;2023-08-07T03:05:11;98464.22;;;14.69;90.11
76794;BME280;65745;50.278;18.192;2023-08-07T03:07:43;98464.41;;;14.68;90.20
76794;BME280;65745;50.278;18.192;2023-08-07T03:10:15;98460.77;;;14.68;90.26
76794;BME280;65745;50.278;18.192;2023-08-07T03:12:47;98461.35;;;14.65;90.63
76794;BME280;65745;50.278;18.192;2023-08-07T03:15:19;98462.50;;;14.68;90.33
76794;BME280;65745;50.278;18.192;2023-08-07T03:17:51;98462.36;;;14.66;90.42
76794;BME280;65745;50.278;18.192;2023-08-07T03:20:23;98464.61;;;14.67;90.51
76794;BME280;65745;50.278;18.192;2023-08-07T03:22:55;98465.43;;;14.70;90.20
76794;BME280;65745;50.278;18.192;2023-08-07T03:25:27;98466.98;;;14.71;90.15
76794;BME280;65745;50.278;18.192;2023-08-07T03:27:59;98468.11;;;14.73;90.08
76794;BME280;65745;50.278;18.192;2023-08-07T03:30:31;98468.98;;;14.74;90.21
76794;BME280;65745;50.278;18.192;2023-08-07T03:33:03;98469.42;;;14.68;90.61
76794;BME280;65745;50.278;18.192;2023-08-07T03:35:37;98470.11;;;14.69;90.29
76794;BME280;65745;50.278;18.192;2023-08-07T03:38:09;98466.50;;;14.68;90.42
76794;BME280;65745;50.278;18.192;2023-08-07T03:40:42;98463.46;;;14.63;90.74
76794;BME280;65745;50.278;18.192;2023-08-07T03:43:14;98463.88;;;14.60;90.65
76794;BME280;65745;50.278;18.192;2023-08-07T03:45:46;98465.59;;;14.61;90.95
76794;BME280;65745;50.278;18.192;2023-08-07T03:48:18;98466.88;;;14.66;90.62
76794;BME280;65745;50.278;18.192;2023-08-07T03:50:50;98471.35;;;14.68;90.75
76794;BME280;65745;50.278;18.192;2023-08-07T03:53:22;98474.95;;;14.70;90.73
76794;BME280;65745;50.278;18.192;2023-08-07T03:55:54;98481.00;;;14.71;90.79
76794;BME280;65745;50.278;18.192;2023-08-07T03:58:26;98483.10;;;14.70;90.93
76794;BME280;65745;50.278;18.192;2023-08-07T04:00:58;98483.74;;;14.72;91.13
76794;BME280;65745;50.278;18.192;2023-08-07T04:03:30;98484.25;;;14.72;91.16
76794;BME280;65745;50.278;18.192;2023-08-07T04:06:03;98485.97;;;14.74;90.95
76794;BME280;65745;50.278;18.192;2023-08-07T04:08:36;98486.23;;;14.69;91.19
76794;BME280;65745;50.278;18.192;2023-08-07T04:11:08;98482.44;;;14.68;91.18
76794;BME280;65745;50.278;18.192;2023-08-07T04:13:41;98482.05;;;14.70;91.08
76794;BME280;65745;50.278;18.192;2023-08-07T04:16:13;98484.05;;;14.74;91.01
76794;BME280;65745;50.278;18.192;2023-08-07T04:18:46;98485.55;;;14.77;90.99
76794;BME280;65745;50.278;18.192;2023-08-07T04:21:18;98485.50;;;14.79;90.93
76794;BME280;65745;50.278;18.192;2023-08-07T04:23:52;98485.34;;;14.79;90.94
76794;BME280;65745;50.278;18.192;2023-08-07T04:26:24;98484.12;;;14.80;90.62
76794;BME280;65745;50.278;18.192;2023-08-07T04:28:57;98488.30;;;14.78;90.90
76794;BME280;65745;50.278;18.192;2023-08-07T04:31:29;98489.98;;;14.81;91.03
76794;BME280;65745;50.278;18.192;2023-08-07T04:34:02;98489.42;;;14.83;90.95
76794;BME280;65745;50.278;18.192;2023-08-07T04:36:35;98489.67;;;14.87;90.55
76794;BME280;65745;50.278;18.192;2023-08-07T04:39:07;98486.52;;;14.89;90.83
76794;BME280;65745;50.278;18.192;2023-08-07T04:41:39;98485.05;;;14.94;90.81
76794;BME280;65745;50.278;18.192;2023-08-07T04:44:11;98485.69;;;14.97;90.50
76794;BME280;65745;50.278;18.192;2023-08-07T04:46:43;98488.64;;;14.97;90.09
76794;BME280;65745;50.278;18.192;2023-08-07T04:49:15;98486.41;;;15.03;90.09
76794;BME280;65745;50.278;18.192;2023-08-07T04:51:47;98485.15;;;15.05;89.94
76794;BME280;65745;50.278;18.192;2023-08-07T04:54:19;98483.96;;;15.04;89.67
76794;BME280;65745;50.278;18.192;2023-08-07T04:56:51;98488.81;;;15.04;89.75
76794;BME280;65745;50.278;18.192;2023-08-07T04:59:24;98491.30;;;15.10;89.65
76794;BME280;65745;50.278;18.192;2023-08-07T05:01:56;98493.95;;;15.16;89.62
76794;BME280;65745;50.278;18.192;2023-08-07T05:04:28;98496.84;;;15.18;89.31
76794;BME280;65745;50.278;18.192;2023-08-07T05:07:00;98496.77;;;15.22;89.08
76794;BME280;65745;50.278;18.192;2023-08-07T05:09:32;98498.16;;;15.22;88.94
76794;BME280;65745;50.278;18.192;2023-08-07T05:12:06;98501.99;;;15.20;88.79
76794;BME280;65745;50.278;18.192;2023-08-07T05:14:38;98500.58;;;15.14;88.41
76794;BME280;65745;50.278;18.192;2023-08-07T05:17:10;98504.58;;;15.13;88.54
76794;BME280;65745;50.278;18.192;2023-08-07T05:19:43;98507.33;;;15.14;88.57
76794;BME280;65745;50.278;18.192;2023-08-07T05:22:16;98509.88;;;15.09;88.75
76794;BME280;65745;50.278;18.192;2023-08-07T05:24:49;98511.34;;;15.05;88.69
76794;BME280;65745;50.278;18.192;2023-08-07T05:27:21;98512.19;;;15.07;88.86
76794;BME280;65745;50.278;18.192;2023-08-07T05:29:53;98512.85;;;15.08;88.83
76794;BME280;65745;50.278;18.192;2023-08-07T05:32:25;98512.13;;;15.09;88.60
76794;BME280;65745;50.278;18.192;2023-08-07T05:34:57;98516.25;;;15.11;88.71
76794;BME280;65745;50.278;18.192;2023-08-07T05:37:29;98518.96;;;15.14;88.51
76794;BME280;65745;50.278;18.192;2023-08-07T05:40:03;98520.16;;;15.14;88.31
76794;BME280;65745;50.278;18.192;2023-08-07T05:42:35;98520.14;;;15.15;88.33
76794;BME280;65745;50.278;18.192;2023-08-07T05:45:09;98522.06;;;15.15;88.59
76794;BME280;65745;50.278;18.192;2023-08-07T05:47:41;98523.29;;;15.14;88.57
76794;BME280;65745;50.278;18.192;2023-08-07T05:50:14;98524.48;;;15.15;88.76
76794;BME280;65745;50.278;18.192;2023-08-07T05:52:46;98523.25;;;15.17;88.93
76794;BME280;65745;50.278;18.192;2023-08-07T05:55:18;98523.60;;;15.17;88.95
76794;BME280;65745;50.278;18.192;2023-08-07T05:57:50;98522.45;;;15.13;88.94
76794;BME280;65745;50.278;18.192;2023-08-07T06:00:22;98524.98;;;15.08;89.08
76794;BME280;65745;50.278;18.192;2023-08-07T06:02:54;98528.96;;;15.08;89.20
76794;BME280;65745;50.278;18.192;2023-08-07T06:05:26;98532.47;;;15.07;89.21
76794;BME280;65745;50.278;18.192;2023-08-07T06:07:58;98537.17;;;15.06;89.21
76794;BME280;65745;50.278;18.192;2023-08-07T06:10:30;98538.30;;;15.01;89.40
76794;BME280;65745;50.278;18.192;2023-08-07T06:13:04;98542.91;;;14.96;89.20
76794;BME280;65745;50.278;18.192;2023-08-07T06:15:37;98543.34;;;14.92;89.14
76794;BME280;65745;50.278;18.192;2023-08-07T06:18:09;98542.84;;;14.92;89.11
76794;BME280;65745;50.278;18.192;2023-08-07T06:20:41;98544.21;;;14.92;89.28
76794;BME280;65745;50.278;18.192;2023-08-07T06:23:13;98546.59;;;14.95;89.23
76794;BME280;65745;50.278;18.192;2023-08-07T06:25:45;98547.45;;;14.94;89.27
76794;BME280;65745;50.278;18.192;2023-08-07T06:28:17;98547.63;;;14.95;89.03
76794;BME280;65745;50.278;18.192;2023-08-07T06:30:49;98547.78;;;14.96;89.16
76794;BME280;65745;50.278;18.192;2023-08-07T06:33:21;98549.85;;;14.97;89.29
76794;BME280;65745;50.278;18.192;2023-08-07T06:35:55;98553.15;;;14.96;89.11
76794;BME280;65745;50.278;18.192;2023-08-07T06:38:27;98552.46;;;14.96;89.11
76794;BME280;65745;50.278;18.192;2023-08-07T06:40:59;98555.04;;;14.97;89.13
76794;BME280;65745;50.278;18.192;2023-08-07T06:43:31;98554.98;;;14.99;89.35
76794;BME280;65745;50.278;18.192;2023-08-07T06:46:03;98552.16;;;15.02;89.13
76794;BME280;65745;50.278;18.192;2023-08-07T06:48:36;98554.02;;;15.04;89.17
76794;BME280;65745;50.278;18.192;2023-08-07T06:51:08;98557.24;;;15.08;89.29
76794;BME280;65745;50.278;18.192;2023-08-07T06:53:40;98555.11;;;15.11;89.25
76794;BME280;65745;50.278;18.192;2023-08-07T06:56:12;98562.36;;;15.13;89.40
76794;BME280;65745;50.278;18.192;2023-08-07T06:58:44;98564.05;;;15.14;89.32
76794;BME280;65745;50.278;18.192;2023-08-07T07:01:16;98565.09;;;15.14;89.25
76794;BME280;65745;50.278;18.192;2023-08-07T07:03:48;98568.36;;;15.16;89.26
76794;BME280;65745;50.278;18.192;2023-08-07T07:06:23;98568.34;;;15.17;89.30
76794;BME280;65745;50.278;18.192;2023-08-07T07:08:56;98572.46;;;15.18;89.49
76794;BME280;65745;50.278;18.192;2023-08-07T07:11:28;98575.55;;;15.21;89.43
76794;BME280;65745;50.278;18.192;2023-08-07T07:14:00;98575.80;;;15.25;89.20
76794;BME280;65745;50.278;18.192;2023-08-07T07:16:32;98578.34;;;15.28;89.12
76794;BME280;65745;50.278;18.192;2023-08-07T07:19:05;98580.00;;;15.32;89.23
76794;BME280;65745;50.278;18.192;2023-08-07T07:21:39;98586.49;;;15.37;89.00
76794;BME280;65745;50.278;18.192;2023-08-07T07:24:12;98589.55;;;15.40;88.93
76794;BME280;65745;50.278;18.192;2023-08-07T07:26:44;98594.34;;;15.43;88.90
76794;BME280;65745;50.278;18.192;2023-08-07T07:29:18;98595.86;;;15.45;88.51
76794;BME280;65745;50.278;18.192;2023-08-07T07:31:50;98598.27;;;15.46;88.59
76794;BME280;65745;50.278;18.192;2023-08-07T07:34:25;98599.86;;;15.45;88.53
76794;BME280;65745;50.278;18.192;2023-08-07T07:36:57;98602.20;;;15.41;88.76
76794;BME280;65745;50.278;18.192;2023-08-07T07:39:29;98603.48;;;15.38;88.82
76794;BME280;65745;50.278;18.192;2023-08-07T07:42:01;98610.45;;;15.36;88.79
76794;BME280;65745;50.278;18.192;2023-08-07T07:44:34;98611.37;;;15.34;89.01
76794;BME280;65745;50.278;18.192;2023-08-07T07:47:07;98614.35;;;15.33;88.87
76794;BME280;65745;50.278;18.192;2023-08-07T07:49:45;98612.75;;;15.34;88.77
76794;BME280;65745;50.278;18.192;2023-08-07T07:52:18;98615.71;;;15.34;88.86
76794;BME280;65745;50.278;18.192;2023-08-07T07:54:50;98617.56;;;15.37;89.11
76794;BME280;65745;50.278;18.192;2023-08-07T07:57:22;98621.45;;;15.42;88.73
76794;BME280;65745;50.278;18.192;2023-08-07T07:59:55;98626.95;;;15.44;88.84
76794;BME280;65745;50.278;18.192;2023-08-07T08:02:27;98626.88;;;15.48;88.75
76794;BME280;65745;50.278;18.192;2023-08-07T08:04:59;98628.72;;;15.53;88.94
76794;BME280;65745;50.278;18.192;2023-08-07T08:07:32;98630.21;;;15.56;88.93
76794;BME280;65745;50.278;18.192;2023-08-07T08:10:06;98628.45;;;15.58;89.36
76794;BME280;65745;50.278;18.192;2023-08-07T08:12:39;98635.12;;;15.61;89.30
76794;BME280;65745;50.278;18.192;2023-08-07T08:15:11;98635.27;;;15.64;88.54
76794;BME280;65745;50.278;18.192;2023-08-07T08:17:43;98636.92;;;15.66;88.84
76794;BME280;65745;50.278;18.192;2023-08-07T08:20:15;98639.67;;;15.68;88.89
76794;BME280;65745;50.278;18.192;2023-08-07T08:22:50;98641.01;;;15.70;88.96
76794;BME280;65745;50.278;18.192;2023-08-07T08:25:22;98646.02;;;15.71;89.12
76794;BME280;65745;50.278;18.192;2023-08-07T08:27:54;98648.79;;;15.72;88.87
76794;BME280;65745;50.278;18.192;2023-08-07T08:30:26;98653.83;;;15.71;89.06
76794;BME280;65745;50.278;18.192;2023-08-07T08:32:58;98657.48;;;15.72;88.96
76794;BME280;65745;50.278;18.192;2023-08-07T08:35:30;98662.00;;;15.71;89.21
76794;BME280;65745;50.278;18.192;2023-08-07T08:38:03;98665.30;;;15.71;89.10
76794;BME280;65745;50.278;18.192;2023-08-07T08:40:35;98668.08;;;15.71;88.93
76794;BME280;65745;50.278;18.192;2023-08-07T08:43:09;98674.16;;;15.70;88.82
76794;BME280;65745;50.278;18.192;2023-08-07T08:45:45;98673.34;;;15.68;88.65
76794;BME280;65745;50.278;18.192;2023-08-07T08:48:20;98673.11;;;15.63;88.72
76794;BME280;65745;50.278;18.192;2023-08-07T08:50:54;98674.75;;;15.59;88.78
76794;BME280;65745;50.278;18.192;2023-08-07T08:53:27;98680.06;;;15.54;89.31
76794;BME280;65745;50.278;18.192;2023-08-07T08:56:01;98686.56;;;15.49;89.48
76794;BME280;65745;50.278;18.192;2023-08-07T08:58:34;98691.08;;;15.39;89.89
76794;BME280;65745;50.278;18.192;2023-08-07T09:01:07;98693.09;;;15.33;90.25
76794;BME280;65745;50.278;18.192;2023-08-07T09:03:41;98692.20;;;15.26;90.30
76794;BME280;65745;50.278;18.192;2023-08-07T09:06:14;98696.61;;;15.21;90.48
76794;BME280;65745;50.278;18.192;2023-08-07T09:08:46;98703.64;;;15.17;90.73
76794;BME280;65745;50.278;18.192;2023-08-07T09:11:21;98718.64;;;15.12;90.37
76794;BME280;65745;50.278;18.192;2023-08-07T09:13:54;98721.80;;;14.89;89.56
76794;BME280;65745;50.278;18.192;2023-08-07T09:16:29;98730.90;;;14.62;89.65
76794;BME280;65745;50.278;18.192;2023-08-07T09:19:02;98729.38;;;14.48;89.75
76794;BME280;65745;50.278;18.192;2023-08-07T09:21:35;98740.13;;;14.35;89.48
76794;BME280;65745;50.278;18.192;2023-08-07T09:24:08;98744.30;;;14.19;89.65
76794;BME280;65745;50.278;18.192;2023-08-07T09:26:43;98749.95;;;14.11;89.91
76794;BME280;65745;50.278;18.192;2023-08-07T09:29:15;98755.30;;;14.13;90.05
76794;BME280;65745;50.278;18.192;2023-08-07T09:31:47;98756.17;;;14.11;90.37
76794;BME280;65745;50.278;18.192;2023-08-07T09:34:22;98758.40;;;14.14;90.53
76794;BME280;65745;50.278;18.192;2023-08-07T09:36:54;98757.69;;;14.16;90.41
76794;BME280;65745;50.278;18.192;2023-08-07T09:39:27;98763.77;;;14.14;90.28
76794;BME280;65745;50.278;18.192;2023-08-07T09:42:00;98763.62;;;14.13;90.60
76794;BME280;65745;50.278;18.192;2023-08-07T09:44:37;98767.08;;;14.14;90.49
76794;BME280;65745;50.278;18.192;2023-08-07T09:47:14;98766.88;;;14.14;90.57
76794;BME280;65745;50.278;18.192;2023-08-07T09:49:47;98763.21;;;14.17;90.52
76794;BME280;65745;50.278;18.192;2023-08-07T09:52:19;98765.08;;;14.19;90.53
76794;BME280;65745;50.278;18.192;2023-08-07T09:54:52;98766.61;;;14.22;90.53
76794;BME280;65745;50.278;18.192;2023-08-07T09:57:26;98768.98;;;14.25;90.78
76794;BME280;65745;50.278;18.192;2023-08-07T10:00:01;98766.51;;;14.29;90.76
76794;BME280;65745;50.278;18.192;2023-08-07T10:02:42;98772.16;;;14.35;90.50
76794;BME280;65745;50.278;18.192;2023-08-07T10:05:15;98772.47;;;14.40;90.63
76794;BME280;65745;50.278;18.192;2023-08-07T10:07:47;98774.81;;;14.45;90.50
76794;BME280;65745;50.278;18.192;2023-08-07T10:10:21;98780.61;;;14.52;90.42
76794;BME280;65745;50.278;18.192;2023-08-07T10:12:53;98786.23;;;14.58;90.52
76794;BME280;65745;50.278;18.192;2023-08-07T10:15:27;98788.92;;;14.65;90.40
76794;BME280;65745;50.278;18.192;2023-08-07T10:18:00;98789.86;;;14.71;90.23
76794;BME280;65745;50.278;18.192;2023-08-07T10:20:32;98793.07;;;14.77;90.19
76794;BME280;65745;50.278;18.192;2023-08-07T10:23:08;98789.00;;;14.82;89.91
76794;BME280;65745;50.278;18.192;2023-08-07T10:25:41;98787.07;;;14.84;89.92
76794;BME280;65745;50.278;18.192;2023-08-07T10:28:15;98790.83;;;14.88;90.07
76794;BME280;65745;50.278;18.192;2023-08-07T10:30:48;98790.80;;;14.91;89.86
76794;BME280;65745;50.278;18.192;2023-08-07T10:33:21;98791.61;;;14.94;89.69
76794;BME280;65745;50.278;18.192;2023-08-07T10:35:57;98794.20;;;14.95;89.22
76794;BME280;65745;50.278;18.192;2023-08-07T10:38:30;98792.92;;;14.98;89.41
76794;BME280;65745;50.278;18.192;2023-08-07T10:41:07;98790.59;;;15.03;88.94
76794;BME280;65745;50.278;18.192;2023-08-07T10:43:41;98786.67;;;15.08;88.57
76794;BME280;65745;50.278;18.192;2023-08-07T10:46:16;98789.46;;;15.08;88.38
76794;BME280;65745;50.278;18.192;2023-08-07T10:48:56;98791.86;;;15.10;88.71
76794;BME280;65745;50.278;18.192;2023-08-07T10:51:31;98786.77;;;15.14;88.68
76794;BME280;65745;50.278;18.192;2023-08-07T10:54:04;98789.00;;;15.16;88.14
76794;BME280;65745;50.278;18.192;2023-08-07T10:56:37;98794.11;;;15.21;87.65
76794;BME280;65745;50.278;18.192;2023-08-07T10:59:12;98792.14;;;15.24;86.98
76794;BME280;65745;50.278;18.192;2023-08-07T11:01:49;98796.85;;;15.33;87.44
76794;BME280;65745;50.278;18.192;2023-08-07T11:04:23;98797.84;;;15.37;87.11
76794;BME280;65745;50.278;18.192;2023-08-07T11:06:57;98796.89;;;15.41;87.15
76794;BME280;65745;50.278;18.192;2023-08-07T11:09:29;98795.20;;;15.50;86.88
76794;BME280;65745;50.278;18.192;2023-08-07T11:12:02;98786.10;;;15.55;86.73
76794;BME280;65745;50.278;18.192;2023-08-07T11:14:35;98792.78;;;15.60;86.64
76794;BME280;65745;50.278;18.192;2023-08-07T11:17:07;98795.52;;;15.71;86.24
76794;BME280;65745;50.278;18.192;2023-08-07T11:19:40;98796.72;;;15.81;86.35
76794;BME280;65745;50.278;18.192;2023-08-07T11:22:13;98795.51;;;15.90;85.80
76794;BME280;65745;50.278;18.192;2023-08-07T11:24:48;98798.80;;;15.99;86.40
76794;BME280;65745;50.278;18.192;2023-08-07T11:27:23;98795.13;;;16.09;85.00
76794;BME280;65745;50.278;18.192;2023-08-07T11:29:56;98795.27;;;16.20;84.99
76794;BME280;65745;50.278;18.192;2023-08-07T11:32:29;98797.78;;;16.32;85.30
76794;BME280;65745;50.278;18.192;2023-08-07T11:35:01;98796.33;;;16.43;85.44
76794;BME280;65745;50.278;18.192;2023-08-07T11:37:36;98800.03;;;16.58;84.72
76794;BME280;65745;50.278;18.192;2023-08-07T11:40:10;98803.98;;;16.68;83.74
76794;BME280;65745;50.278;18.192;2023-08-07T11:42:43;98803.95;;;16.77;82.24
76794;BME280;65745;50.278;18.192;2023-08-07T11:45:15;98808.98;;;17.00;83.00
76794;BME280;65745;50.278;18.192;2023-08-07T11:47:48;98810.64;;;17.25;82.80
76794;BME280;65745;50.278;18.192;2023-08-07T11:50:22;98812.52;;;17.55;81.96
76794;BME280;65745;50.278;18.192;2023-08-07T11:52:55;98809.41;;;17.81;81.12
76794;BME280;65745;50.278;18.192;2023-08-07T11:55:31;98813.56;;;18.07;81.21
76794;BME280;65745;50.278;18.192;2023-08-07T11:58:06;98808.29;;;18.27;79.52
76794;BME280;65745;50.278;18.192;2023-08-07T12:00:39;98814.64;;;18.49;78.09
76794;BME280;65745;50.278;18.192;2023-08-07T12:03:27;98816.29;;;18.70;78.40
76794;BME280;65745;50.278;18.192;2023-08-07T12:06:01;98819.15;;;18.96;77.46
76794;BME280;65745;50.278;18.192;2023-08-07T12:08:36;98815.41;;;19.03;76.54
76794;BME280;65745;50.278;18.192;2023-08-07T12:11:09;98813.68;;;18.98;75.14
76794;BME280;65745;50.278;18.192;2023-08-07T12:13:43;98816.19;;;19.23;75.81
76794;BME280;65745;50.278;18.192;2023-08-07T12:16:17;98816.44;;;19.68;75.36
76794;BME280;65745;50.278;18.192;2023-08-07T12:18:51;98814.80;;;20.00;73.16
76794;BME280;65745;50.278;18.192;2023-08-07T12:21:24;98813.54;;;20.25;72.38
76794;BME280;65745;50.278;18.192;2023-08-07T12:23:58;98816.31;;;20.54;71.55
76794;BME280;65745;50.278;18.192;2023-08-07T12:26:31;98814.55;;;20.91;72.41
76794;BME280;65745;50.278;18.192;2023-08-07T12:29:04;98822.33;;;21.02;69.38
76794;BME280;65745;50.278;18.192;2023-08-07T12:31:36;98828.55;;;20.86;68.63
76794;BME280;65745;50.278;18.192;2023-08-07T12:34:10;98827.59;;;20.62;67.91
76794;BME280;65745;50.278;18.192;2023-08-07T12:36:45;98828.21;;;20.35;68.41
76794;BME280;65745;50.278;18.192;2023-08-07T12:39:18;98826.60;;;19.98;68.74
76794;BME280;65745;50.278;18.192;2023-08-07T12:41:51;98829.42;;;19.72;68.66
76794;BME280;65745;50.278;18.192;2023-08-07T12:44:25;98829.95;;;19.57;69.52
76794;BME280;65745;50.278;18.192;2023-08-07T12:46:58;98834.07;;;19.37;69.96
76794;BME280;65745;50.278;18.192;2023-08-07T12:49:35;98836.77;;;19.18;70.73
76794;BME280;65745;50.278;18.192;2023-08-07T12:52:08;98837.19;;;19.11;71.48
76794;BME280;65745;50.278;18.192;2023-08-07T12:54:40;98836.58;;;19.07;72.01
76794;BME280;65745;50.278;18.192;2023-08-07T12:57:13;98845.33;;;19.02;71.97
76794;BME280;65745;50.278;18.192;2023-08-07T12:59:45;98844.41;;;18.92;72.27
76794;BME280;65745;50.278;18.192;2023-08-07T13:02:18;98845.05;;;18.83;72.46
76794;BME280;65745;50.278;18.192;2023-08-07T13:04:50;98841.87;;;18.67;72.75
76794;BME280;65745;50.278;18.192;2023-08-07T13:07:22;98836.86;;;18.65;73.15
76794;BME280;65745;50.278;18.192;2023-08-07T13:09:56;98841.71;;;18.65;73.14
76794;BME280;65745;50.278;18.192;2023-08-07T13:12:28;98842.29;;;18.70;72.95
76794;BME280;65745;50.278;18.192;2023-08-07T13:15:01;98845.52;;;18.72;73.04
76794;BME280;65745;50.278;18.192;2023-08-07T13:17:33;98841.48;;;18.74;72.82
76794;BME280;65745;50.278;18.192;2023-08-07T13:20:08;98849.75;;;18.83;73.70